Calhan, Colorado
Current Conditions -  °F | °C
As of 12:56 PM on Friday 21 Nov 2014 (Local Time) from KABH Reporting Station
Light Rain Light Rain  
Wind Chill: 53°   Ceiling: Unl
Heat Index: 53°   Visibility: 10mi
Dew Point: 15°   Wind: 3mph
Humidity: 22%   Direction: NA
Pressure: 29.93"   Gusts: NA
Location:  39.04°N, 104.3°W
Report Text: KABH 211956Z AUTO VRB03KT 10SM -RA CLR 12/M09 A2993 RMK AO2 SLP138 P0000 T01171094 $
Loading
Personal Weather Stations






























Interactive Weather Map New forecast layout! Learn more

10-Day Weather Forecast

Advertisements
Track Severe Weather on mobile